createdAt,value
2024-03-26T00:09:11.474Z,95.52
2024-03-26T00:19:11.786Z,96.88
2024-03-26T00:29:12.070Z,95.31
2024-03-26T00:49:12.659Z,93.57
2024-03-26T00:59:12.913Z,95.36
2024-03-26T01:09:13.342Z,93.84
2024-03-26T01:19:13.818Z,94.71
2024-03-26T01:29:13.780Z,94.65
2024-03-26T01:39:14.271Z,94.78
2024-03-26T01:49:14.546Z,94.47
2024-03-26T01:59:14.841Z,92.72
2024-03-26T02:09:15.112Z,93.61
2024-03-26T02:19:15.378Z,96.38
2024-03-26T02:29:15.987Z,98.27
2024-03-26T02:39:15.973Z,98.32
2024-03-26T02:49:16.514Z,99.07
2024-03-26T02:59:16.508Z,98.83
2024-03-26T03:09:17.092Z,98.57
2024-03-26T03:49:17.931Z,100.00
2024-03-26T03:59:18.180Z,100.00
2024-03-26T04:09:18.743Z,100.00
2024-03-26T04:19:18.710Z,100.00
2024-03-26T04:29:18.987Z,100.00
2024-03-26T04:39:19.269Z,100.00
2024-03-26T04:49:19.547Z,100.00
2024-03-26T04:59:19.888Z,100.00
2024-03-26T05:09:20.093Z,99.77
2024-03-26T05:19:20.107Z,100.00
2024-03-26T05:29:20.647Z,99.86
2024-03-26T05:39:20.628Z,99.39
2024-03-26T05:49:20.894Z,98.26
2024-03-26T05:59:21.175Z,97.68
2024-03-26T06:09:21.360Z,96.59
2024-03-26T06:19:21.736Z,95.87
2024-03-26T06:29:22.007Z,94.69
2024-03-26T06:39:22.291Z,93.71
2024-03-26T06:49:22.479Z,92.15
2024-03-26T06:59:22.859Z,89.45
2024-03-26T07:09:23.447Z,87.64
2024-03-26T07:19:23.707Z,85.38
2024-03-26T07:29:23.970Z,82.82
2024-03-26T07:39:24.573Z,79.96
2024-03-26T07:49:25.163Z,78.50
2024-03-26T07:59:25.582Z,71.37
2024-03-26T08:09:26.340Z,64.44
2024-03-26T08:19:26.943Z,60.51
2024-03-26T08:29:27.659Z,57.51
2024-03-26T08:39:28.388Z,50.26
2024-03-26T08:49:29.127Z,47.25
2024-03-26T08:59:30.172Z,46.13
2024-03-26T09:09:31.255Z,45.89
2024-03-26T09:19:32.588Z,45.70
2024-03-26T09:29:33.375Z,45.57
2024-03-26T09:39:34.694Z,43.26
2024-03-26T09:49:35.580Z,40.89
2024-03-26T09:59:36.713Z,38.02
2024-03-26T10:09:37.867Z,36.37
2024-03-26T10:19:39.877Z,34.12
2024-03-26T10:29:40.063Z,33.92
2024-03-26T10:49:42.486Z,33.61
2024-03-26T10:59:43.360Z,32.46
2024-03-26T11:09:44.566Z,32.29
2024-03-26T11:19:45.741Z,31.64
2024-03-26T11:39:48.143Z,31.53
2024-03-26T11:49:49.332Z,30.77
2024-03-26T11:59:50.540Z,30.82
2024-03-26T12:09:51.493Z,30.41
2024-03-26T12:19:52.677Z,30.02
2024-03-26T12:29:54.135Z,29.62
2024-03-26T12:39:55.347Z,28.81
2024-03-26T12:49:56.522Z,26.91
2024-03-26T12:59:57.485Z,26.66
2024-03-26T13:09:58.754Z,26.94
2024-03-26T13:20:00.031Z,27.48
2024-03-26T13:30:01.178Z,28.04
2024-03-26T13:40:02.571Z,28.40
2024-03-26T13:50:03.569Z,27.87
2024-03-26T14:00:04.848Z,28.63
2024-03-26T14:10:06.299Z,28.90
2024-03-26T14:20:07.227Z,27.71
2024-03-26T14:30:09.160Z,28.45
2024-03-26T14:40:10.838Z,27.69
2024-03-26T14:50:10.846Z,27.36
2024-03-26T15:00:12.192Z,27.96
2024-03-26T15:10:13.334Z,28.00
2024-03-26T15:20:18.204Z,28.64
2024-03-26T15:30:15.675Z,29.41
2024-03-26T15:40:16.893Z,30.17
2024-03-26T15:50:19.405Z,30.60
2024-03-26T16:00:19.359Z,30.24
2024-03-26T16:10:31.505Z,30.45
2024-03-26T16:20:21.592Z,30.69
2024-03-26T16:30:22.764Z,30.94
2024-03-26T16:40:24.195Z,31.45
2024-03-26T16:50:25.088Z,31.45
2024-03-26T17:00:26.266Z,32.10
2024-03-26T17:10:27.463Z,32.75
2024-03-26T17:20:28.257Z,33.43
2024-03-26T17:40:30.512Z,34.59
2024-03-26T17:50:31.644Z,34.80
2024-03-26T18:00:32.818Z,35.31
2024-03-26T18:10:34.055Z,35.42
2024-03-26T18:20:34.929Z,35.72
2024-03-26T18:30:35.741Z,36.06
2024-03-26T18:40:36.717Z,36.48
2024-03-26T18:50:37.765Z,36.76
2024-03-26T19:00:38.731Z,36.61
2024-03-26T19:10:39.874Z,36.23
2024-03-26T19:20:40.868Z,36.11
2024-03-26T19:30:41.629Z,36.27
2024-03-26T19:40:42.838Z,36.31
2024-03-26T19:50:43.405Z,36.26
2024-03-26T20:00:44.591Z,36.92
2024-03-26T20:10:45.306Z,37.50
2024-03-26T20:20:46.430Z,37.99
2024-03-26T20:30:47.378Z,38.34
2024-03-26T20:40:48.307Z,38.84
2024-03-26T20:50:48.938Z,39.36
2024-03-26T21:00:50.256Z,39.90
2024-03-26T21:10:50.716Z,40.92
2024-03-26T21:20:51.752Z,42.05
2024-03-26T21:30:52.456Z,43.04
2024-03-26T21:40:53.230Z,43.87
2024-03-26T21:50:54.225Z,44.66
2024-03-26T22:00:54.827Z,45.06
2024-03-26T22:10:55.735Z,45.46
2024-03-26T22:20:56.614Z,45.96
2024-03-26T22:30:57.124Z,46.49
2024-03-26T22:40:58.005Z,46.58
2024-03-26T22:50:58.881Z,47.04
2024-03-26T23:00:59.715Z,47.64
2024-03-26T23:11:00.781Z,48.49
2024-03-26T23:21:01.341Z,48.72
2024-03-26T23:31:02.106Z,48.82
2024-03-26T23:41:02.885Z,49.63
2024-03-26T23:51:03.664Z,49.80
